Time;durP1;ratioP1;P1;durP2;ratioP2;P2;SDS_P1;SDS_P2;PMS_P1;PMS_P2;Temp;Humidity;BMP_temperature;BMP_pressure;BME280_temperature;BME280_humidity;BME280_pressure;Samples;Min_cycle;Max_cycle;Signal;HPM_P1;HPM_P2
2022/07/22 00:01:04;;;;;;;20.30;5.40;;;;;;;;;;4910646;29;20511;-89
2022/07/22 00:09:44;;;;;;;16.02;4.80;;;;;;;;;;4919228;28;20131;-90
2022/07/22 00:12:10;;;;;;;20.17;4.50;;;;;;;;;;4944223;28;20038;-89
2022/07/22 00:14:36;;;;;;;23.63;6.45;;;;;;;;;;4931395;29;20036;-88
2022/07/22 00:17:02;;;;;;;20.50;4.03;;;;;;;;;;4914865;29;20041;-89
2022/07/22 00:19:28;;;;;;;19.10;4.63;;;;;;;;;;4945655;28;20103;-89
2022/07/22 00:21:55;;;;;;;18.42;3.75;;;;;;;;;;4913768;29;20035;-89
2022/07/22 00:24:24;;;;;;;27.65;4.90;;;;;;;;;;4943255;28;20043;-89
2022/07/22 00:26:51;;;;;;;24.92;4.07;;;;;;;;;;4931232;29;20034;-90
2022/07/22 00:29:17;;;;;;;17.40;3.90;;;;;;;;;;4944505;28;20122;-90
2022/07/22 00:31:43;;;;;;;17.58;4.22;;;;;;;;;;4918229;29;20027;-89
2022/07/22 00:34:09;;;;;;;23.60;3.97;;;;;;;;;;4948176;28;20038;-88
2022/07/22 00:36:35;;;;;;;18.45;5.35;;;;;;;;;;4940243;28;20024;-90
2022/07/22 00:39:01;;;;;;;18.55;4.07;;;;;;;;;;4934382;29;20032;-89
2022/07/22 00:41:27;;;;;;;13.98;3.40;;;;;;;;;;4933285;29;20110;-90
2022/07/22 00:44:01;;;;;;;21.35;3.70;;;;;;;;;;4933262;29;20736;-89
2022/07/22 00:46:28;;;;;;;15.20;3.15;;;;;;;;;;4946735;28;20039;-89
2022/07/22 00:48:54;;;;;;;21.40;5.38;;;;;;;;;;4933928;29;20039;-90
2022/07/22 00:51:21;;;;;;;19.98;3.55;;;;;;;;;;4934557;29;20106;-89
2022/07/22 00:53:47;;;;;;;21.10;3.45;;;;;;;;;;4934721;29;20035;-89
2022/07/22 00:56:14;;;;;;;21.25;3.08;;;;;;;;;;4946886;28;20480;-88
2022/07/22 00:58:40;;;;;;;13.48;3.08;;;;;;;;;;4915206;29;20090;-89
2022/07/22 01:01:06;;;;;;;22.38;3.45;;;;;;;;;;4948350;28;20039;-89
2022/07/22 01:03:32;;;;;;;8.65;2.88;;;;;;;;;;4945976;28;20062;-89
2022/07/22 01:05:58;;;;;;;14.00;4.20;;;;;;;;;;4915559;29;20140;-89
2022/07/22 01:08:24;;;;;;;8.25;2.65;;;;;;;;;;4945306;28;20035;-89
2022/07/22 01:10:50;;;;;;;15.82;3.22;;;;;;;;;;4943459;28;20079;-89
2022/07/22 01:13:16;;;;;;;10.10;3.03;;;;;;;;;;4948939;28;20050;-89
2022/07/22 01:15:42;;;;;;;11.75;2.72;;;;;;;;;;4948478;28;20032;-90
2022/07/22 01:18:09;;;;;;;17.40;2.80;;;;;;;;;;4913192;29;20043;-89
2022/07/22 01:20:35;;;;;;;11.85;3.58;;;;;;;;;;4944806;28;20115;-90
2022/07/22 01:23:01;;;;;;;9.45;2.88;;;;;;;;;;4936515;29;20046;-89
2022/07/22 01:25:27;;;;;;;11.63;2.63;;;;;;;;;;4934009;29;20615;-90
2022/07/22 01:27:54;;;;;;;16.95;3.03;;;;;;;;;;4936598;29;20590;-90
2022/07/22 01:30:20;;;;;;;7.32;2.35;;;;;;;;;;4922705;29;20420;-90
2022/07/22 01:32:46;;;;;;;7.70;2.53;;;;;;;;;;4948648;28;20392;-90
2022/07/22 01:35:12;;;;;;;8.93;2.42;;;;;;;;;;4952343;28;20027;-92
2022/07/22 01:37:38;;;;;;;17.98;3.15;;;;;;;;;;4956677;28;20027;-90
2022/07/22 01:40:04;;;;;;;14.95;2.50;;;;;;;;;;4938769;29;20062;-90
2022/07/22 01:42:30;;;;;;;16.48;2.72;;;;;;;;;;4949230;28;20036;-89
2022/07/22 01:44:57;;;;;;;9.63;2.25;;;;;;;;;;4920443;29;20143;-90
2022/07/22 01:47:23;;;;;;;12.13;3.03;;;;;;;;;;4951334;28;20047;-89
2022/07/22 01:49:49;;;;;;;14.63;2.45;;;;;;;;;;4948411;28;20548;-89
2022/07/22 01:52:15;;;;;;;13.38;2.78;;;;;;;;;;4933966;29;20106;-89
2022/07/22 01:54:41;;;;;;;4.80;2.00;;;;;;;;;;4945079;28;20032;-88
2022/07/22 01:57:07;;;;;;;10.05;2.17;;;;;;;;;;4942250;28;20777;-90
2022/07/22 01:59:33;;;;;;;17.48;2.15;;;;;;;;;;4948367;28;20047;-89
2022/07/22 02:01:59;;;;;;;10.10;2.25;;;;;;;;;;4946275;28;20038;-89
2022/07/22 02:04:25;;;;;;;9.55;2.30;;;;;;;;;;4918392;29;20035;-90
2022/07/22 02:06:51;;;;;;;7.75;2.20;;;;;;;;;;4926163;29;20495;-89
2022/07/22 02:09:17;;;;;;;9.07;2.38;;;;;;;;;;4914293;28;21595;-90
2022/07/22 02:11:43;;;;;;;5.63;2.20;;;;;;;;;;4940855;28;20039;-89
2022/07/22 02:14:09;;;;;;;12.88;2.45;;;;;;;;;;4929880;29;20502;-89
2022/07/22 02:16:35;;;;;;;9.65;1.90;;;;;;;;;;4941994;28;20122;-89
2022/07/22 02:19:01;;;;;;;10.90;2.28;;;;;;;;;;4933835;29;20042;-90
2022/07/22 02:21:27;;;;;;;5.53;2.50;;;;;;;;;;4942412;28;22763;-89
2022/07/22 02:23:53;;;;;;;6.93;2.15;;;;;;;;;;4912338;29;20040;-90
2022/07/22 02:26:19;;;;;;;10.82;2.35;;;;;;;;;;4933174;29;20040;-89
2022/07/22 02:28:45;;;;;;;8.35;2.33;;;;;;;;;;4920960;29;20466;-90
2022/07/22 02:31:11;;;;;;;8.57;2.05;;;;;;;;;;4927759;29;20369;-90
2022/07/22 02:33:38;;;;;;;7.30;2.22;;;;;;;;;;4945850;28;20067;-89
2022/07/22 02:36:04;;;;;;;12.27;2.70;;;;;;;;;;4934815;29;20442;-90
2022/07/22 02:38:30;;;;;;;6.70;2.35;;;;;;;;;;4942231;28;20484;-89
2022/07/22 02:40:56;;;;;;;10.75;2.53;;;;;;;;;;4918499;29;20056;-90
2022/07/22 02:43:22;;;;;;;9.70;2.53;;;;;;;;;;4944344;28;20035;-90
2022/07/22 02:45:48;;;;;;;20.33;3.35;;;;;;;;;;4916308;29;20032;-89
2022/07/22 02:48:14;;;;;;;8.50;2.15;;;;;;;;;;4930710;29;20042;-90
2022/07/22 02:50:45;;;;;;;11.30;2.30;;;;;;;;;;4944105;28;20028;-90
2022/07/22 02:53:11;;;;;;;11.35;2.30;;;;;;;;;;4942806;28;20038;-89
2022/07/22 02:55:37;;;;;;;11.05;2.92;;;;;;;;;;4931927;29;20040;-90
2022/07/22 02:58:07;;;;;;;13.50;2.70;;;;;;;;;;4942734;28;20118;-89
2022/07/22 03:00:33;;;;;;;11.43;2.80;;;;;;;;;;4924559;29;20043;-89
2022/07/22 03:02:59;;;;;;;10.95;2.35;;;;;;;;;;4946345;28;20043;-90
2022/07/22 03:05:31;;;;;;;7.97;1.85;;;;;;;;;;4945475;28;20044;-90
2022/07/22 03:07:57;;;;;;;10.52;2.45;;;;;;;;;;4935058;29;20027;-90
2022/07/22 03:10:23;;;;;;;6.60;2.33;;;;;;;;;;4926077;29;20056;-90
2022/07/22 03:12:49;;;;;;;11.43;2.20;;;;;;;;;;4932676;29;20508;-89
2022/07/22 03:15:15;;;;;;;6.97;1.63;;;;;;;;;;4930025;29;20039;-89
2022/07/22 03:17:42;;;;;;;9.52;2.33;;;;;;;;;;4940747;28;20745;-89
2022/07/22 03:20:09;;;;;;;14.00;2.20;;;;;;;;;;4943005;28;20459;-89
2022/07/22 03:22:35;;;;;;;10.30;2.28;;;;;;;;;;4936867;28;20031;-90
2022/07/22 03:25:02;;;;;;;8.20;1.65;;;;;;;;;;4941777;28;20031;-90
2022/07/22 03:27:29;;;;;;;7.60;2.45;;;;;;;;;;4915614;29;20047;-90
2022/07/22 03:29:55;;;;;;;11.00;2.22;;;;;;;;;;4924406;29;20524;-90
2022/07/22 03:32:21;;;;;;;5.75;2.03;;;;;;;;;;4942346;28;20952;-90
2022/07/22 03:34:47;;;;;;;17.38;3.00;;;;;;;;;;4927675;29;20023;-89
2022/07/22 03:37:13;;;;;;;9.90;2.25;;;;;;;;;;4930650;29;20098;-90
2022/07/22 03:39:39;;;;;;;7.32;2.15;;;;;;;;;;4930583;29;20373;-89
2022/07/22 03:42:05;;;;;;;7.13;1.90;;;;;;;;;;4913492;29;20036;-89
2022/07/22 03:44:31;;;;;;;9.02;2.65;;;;;;;;;;4943519;28;20551;-89
2022/07/22 03:46:57;;;;;;;12.82;2.30;;;;;;;;;;4942987;28;20399;-90
2022/07/22 03:49:23;;;;;;;10.48;2.33;;;;;;;;;;4942340;28;20075;-90
2022/07/22 03:51:49;;;;;;;8.52;1.90;;;;;;;;;;4945148;28;20126;-90
2022/07/22 03:54:15;;;;;;;18.15;2.40;;;;;;;;;;4914354;29;20044;-91
2022/07/22 03:56:41;;;;;;;7.45;2.30;;;;;;;;;;4948880;28;20043;-89
2022/07/22 03:59:07;;;;;;;10.10;2.65;;;;;;;;;;4930906;29;20117;-90
2022/07/22 04:01:33;;;;;;;10.00;1.98;;;;;;;;;;4932561;29;20051;-90
2022/07/22 04:03:59;;;;;;;4.22;2.05;;;;;;;;;;4927738;29;20060;-90
2022/07/22 04:06:25;;;;;;;8.25;2.60;;;;;;;;;;4939628;28;20039;-90
2022/07/22 04:08:52;;;;;;;4.78;1.95;;;;;;;;;;4942258;28;20028;-90
2022/07/22 04:11:18;;;;;;;14.55;2.08;;;;;;;;;;4941985;28;20131;-90
2022/07/22 04:13:44;;;;;;;7.95;2.05;;;;;;;;;;4930128;29;20111;-90
2022/07/22 04:16:10;;;;;;;10.05;2.38;;;;;;;;;;4917697;29;20027;-90
2022/07/22 04:18:36;;;;;;;4.70;2.33;;;;;;;;;;4941084;28;20036;-90
2022/07/22 04:21:02;;;;;;;9.52;1.95;;;;;;;;;;4928952;29;20031;-90
2022/07/22 04:23:28;;;;;;;10.02;2.00;;;;;;;;;;4927391;29;20063;-90
2022/07/22 04:25:54;;;;;;;12.15;1.73;;;;;;;;;;4944250;28;20031;-88
2022/07/22 04:28:20;;;;;;;8.10;2.05;;;;;;;;;;4945265;28;20118;-89
2022/07/22 04:30:46;;;;;;;7.30;1.75;;;;;;;;;;4929399;29;20094;-89
2022/07/22 04:33:12;;;;;;;12.50;2.53;;;;;;;;;;4939894;28;20043;-88
2022/07/22 04:35:38;;;;;;;17.13;2.92;;;;;;;;;;4939267;28;20042;-88
2022/07/22 04:38:04;;;;;;;8.98;1.92;;;;;;;;;;4921163;29;20024;-89
2022/07/22 04:40:32;;;;;;;8.77;2.00;;;;;;;;;;4941827;28;20042;-88
2022/07/22 04:42:58;;;;;;;12.48;1.88;;;;;;;;;;4932317;29;20031;-88
2022/07/22 04:45:24;;;;;;;9.07;2.13;;;;;;;;;;4947427;28;20038;-88
2022/07/22 04:47:50;;;;;;;6.82;1.92;;;;;;;;;;4912444;29;20539;-88
2022/07/22 04:50:16;;;;;;;10.20;2.08;;;;;;;;;;4916481;29;20067;-88
2022/07/22 04:52:42;;;;;;;8.32;2.10;;;;;;;;;;4940647;28;20052;-89
2022/07/22 04:55:08;;;;;;;11.00;2.28;;;;;;;;;;4929220;29;20075;-89
2022/07/22 04:57:34;;;;;;;8.60;2.35;;;;;;;;;;4910289;29;20039;-89
2022/07/22 05:00:00;;;;;;;12.07;1.80;;;;;;;;;;4945252;28;20050;-88
2022/07/22 05:02:26;;;;;;;3.45;1.77;;;;;;;;;;4911146;29;20044;-88
2022/07/22 05:04:52;;;;;;;10.07;2.00;;;;;;;;;;4941729;28;20047;-88
2022/07/22 05:07:18;;;;;;;4.95;2.10;;;;;;;;;;4909036;29;20727;-88
2022/07/22 05:09:57;;;;;;;7.55;1.77;;;;;;;;;;4942339;28;20099;-88
2022/07/22 05:12:23;;;;;;;9.05;1.95;;;;;;;;;;4900805;29;20071;-88
2022/07/22 05:14:49;;;;;;;10.35;2.20;;;;;;;;;;4893718;29;20580;-88
2022/07/22 05:17:15;;;;;;;5.00;1.80;;;;;;;;;;4918004;29;20136;-87
2022/07/22 05:19:41;;;;;;;11.32;1.85;;;;;;;;;;4893751;29;20035;-88
2022/07/22 05:22:07;;;;;;;11.05;2.03;;;;;;;;;;4898889;29;20649;-87
2022/07/22 05:24:33;;;;;;;4.00;1.50;;;;;;;;;;4889245;29;20217;-88
2022/07/22 05:26:59;;;;;;;9.18;2.17;;;;;;;;;;4923828;29;20037;-89
2022/07/22 05:29:25;;;;;;;7.97;2.30;;;;;;;;;;4924498;29;20527;-89
2022/07/22 05:31:51;;;;;;;3.60;1.45;;;;;;;;;;4893544;29;20056;-88
2022/07/22 05:34:18;;;;;;;9.25;1.83;;;;;;;;;;4924699;29;20075;-88
2022/07/22 05:36:44;;;;;;;9.20;2.20;;;;;;;;;;4890211;29;20062;-88
2022/07/22 05:39:10;;;;;;;5.20;1.85;;;;;;;;;;4894097;29;20079;-88
2022/07/22 05:41:37;;;;;;;6.10;1.70;;;;;;;;;;4892791;29;20063;-89
2022/07/22 05:44:03;;;;;;;10.45;1.70;;;;;;;;;;4924247;29;20064;-88
2022/07/22 05:46:29;;;;;;;9.65;1.92;;;;;;;;;;4901844;29;20044;-89
2022/07/22 05:48:55;;;;;;;9.80;1.80;;;;;;;;;;4894787;29;20029;-89
2022/07/22 05:51:21;;;;;;;5.45;1.80;;;;;;;;;;4903386;29;20037;-89
2022/07/22 05:53:47;;;;;;;7.82;1.88;;;;;;;;;;4910240;29;20397;-88
2022/07/22 05:56:13;;;;;;;9.27;1.95;;;;;;;;;;4891120;29;20404;-89
2022/07/22 05:58:40;;;;;;;6.07;1.70;;;;;;;;;;4917349;29;20695;-89
2022/07/22 06:01:06;;;;;;;2.50;1.60;;;;;;;;;;4911198;29;20528;-89
2022/07/22 06:03:33;;;;;;;5.38;2.28;;;;;;;;;;4912701;29;20362;-89
2022/07/22 06:06:01;;;;;;;7.93;2.17;;;;;;;;;;4898277;29;20028;-89
2022/07/22 06:08:27;;;;;;;12.32;1.88;;;;;;;;;;4931245;29;20036;-88
2022/07/22 06:10:53;;;;;;;5.55;1.70;;;;;;;;;;4928357;28;20080;-88
2022/07/22 06:13:19;;;;;;;8.77;1.90;;;;;;;;;;4952663;28;20126;-88
2022/07/22 06:15:45;;;;;;;6.63;2.10;;;;;;;;;;4955349;28;20519;-89
2022/07/22 06:18:11;;;;;;;4.93;1.73;;;;;;;;;;4932005;29;20171;-89
2022/07/22 06:20:37;;;;;;;6.03;1.50;;;;;;;;;;4950023;28;20095;-88
2022/07/22 06:23:03;;;;;;;15.63;2.17;;;;;;;;;;4936394;28;20035;-88
2022/07/22 06:25:30;;;;;;;13.32;2.20;;;;;;;;;;4947055;28;20031;-89
2022/07/22 06:27:56;;;;;;;9.75;1.90;;;;;;;;;;4942848;28;20511;-89
2022/07/22 06:30:22;;;;;;;5.35;1.88;;;;;;;;;;4949763;28;20035;-89
2022/07/22 06:32:48;;;;;;;6.70;1.80;;;;;;;;;;4947327;28;20058;-89
2022/07/22 06:35:14;;;;;;;13.30;2.25;;;;;;;;;;4944301;28;20618;-89
2022/07/22 06:37:40;;;;;;;6.00;1.60;;;;;;;;;;4913046;29;20122;-90
2022/07/22 06:40:06;;;;;;;5.68;1.85;;;;;;;;;;4941769;28;20047;-89
2022/07/22 06:42:32;;;;;;;4.25;1.88;;;;;;;;;;4945235;28;20033;-90
2022/07/22 06:44:58;;;;;;;6.15;2.67;;;;;;;;;;4933066;29;20718;-88
2022/07/22 06:47:24;;;;;;;4.63;1.65;;;;;;;;;;4943500;28;20117;-89
2022/07/22 06:49:51;;;;;;;4.70;1.70;;;;;;;;;;4943796;28;20024;-90
2022/07/22 06:52:16;;;;;;;6.25;1.77;;;;;;;;;;4929735;29;20135;-89
2022/07/22 06:54:42;;;;;;;7.85;2.22;;;;;;;;;;4943986;28;20126;-89
2022/07/22 06:57:08;;;;;;;4.32;1.40;;;;;;;;;;4933745;29;20254;-86
2022/07/22 06:59:34;;;;;;;5.95;2.50;;;;;;;;;;4932027;29;20456;-86
2022/07/22 07:02:00;;;;;;;5.80;1.42;;;;;;;;;;4931191;29;20135;-86
2022/07/22 07:04:26;;;;;;;10.48;3.45;;;;;;;;;;4926981;29;21090;-87
2022/07/22 07:06:52;;;;;;;4.72;1.88;;;;;;;;;;4927807;29;20031;-87
2022/07/22 07:09:18;;;;;;;4.13;1.42;;;;;;;;;;4926308;29;20484;-87
2022/07/22 07:11:44;;;;;;;8.05;1.45;;;;;;;;;;4929551;28;20047;-87
2022/07/22 07:14:10;;;;;;;4.47;1.38;;;;;;;;;;4944503;28;20031;-87
2022/07/22 07:16:36;;;;;;;6.20;1.73;;;;;;;;;;4930907;29;20091;-87
2022/07/22 07:19:02;;;;;;;4.25;1.58;;;;;;;;;;4930639;29;20706;-87
2022/07/22 07:21:29;;;;;;;3.55;1.20;;;;;;;;;;4930588;29;20028;-87
2022/07/22 07:23:55;;;;;;;5.50;1.35;;;;;;;;;;4925589;29;20119;-86
2022/07/22 07:26:21;;;;;;;4.57;1.25;;;;;;;;;;4914325;29;20318;-87
2022/07/22 07:28:47;;;;;;;6.72;1.63;;;;;;;;;;4944901;28;20035;-87
2022/07/22 07:31:13;;;;;;;7.65;1.38;;;;;;;;;;4942440;28;20032;-86
2022/07/22 07:33:39;;;;;;;8.90;1.63;;;;;;;;;;4940711;28;20028;-86
2022/07/22 07:36:06;;;;;;;3.42;1.02;;;;;;;;;;4942961;28;20031;-87
2022/07/22 07:38:34;;;;;;;7.55;1.83;;;;;;;;;;4944931;28;20019;-87
2022/07/22 07:41:00;;;;;;;5.30;1.13;;;;;;;;;;4942339;28;20067;-86
2022/07/22 07:43:26;;;;;;;8.57;1.60;;;;;;;;;;4943826;28;20035;-87
2022/07/22 07:45:52;;;;;;;2.78;1.05;;;;;;;;;;4940994;28;20047;-87
2022/07/22 07:48:18;;;;;;;5.13;1.50;;;;;;;;;;4926779;29;20050;-87
2022/07/22 07:50:44;;;;;;;7.00;1.50;;;;;;;;;;4928835;29;20536;-86
2022/07/22 07:53:14;;;;;;;3.33;1.63;;;;;;;;;;4941706;28;20095;-87
2022/07/22 07:55:40;;;;;;;5.55;1.63;;;;;;;;;;4925110;29;20020;-87
2022/07/22 07:58:06;;;;;;;5.95;2.00;;;;;;;;;;4912723;29;20032;-87
2022/07/22 08:00:34;;;;;;;4.68;1.40;;;;;;;;;;4942640;28;20087;-86
2022/07/22 08:03:00;;;;;;;6.72;1.75;;;;;;;;;;4931136;29;20023;-87
2022/07/22 08:05:27;;;;;;;3.88;1.35;;;;;;;;;;4943823;28;20570;-87
2022/07/22 08:07:53;;;;;;;4.68;1.50;;;;;;;;;;4923408;29;20062;-87
2022/07/22 08:10:20;;;;;;;5.22;1.13;;;;;;;;;;4942058;28;20040;-87
2022/07/22 08:12:46;;;;;;;5.82;1.30;;;;;;;;;;4930287;29;20388;-87
2022/07/22 08:15:12;;;;;;;4.88;1.45;;;;;;;;;;4942795;28;20061;-86
2022/07/22 08:17:38;;;;;;;3.70;0.98;;;;;;;;;;4911632;29;20062;-86
2022/07/22 08:20:05;;;;;;;2.13;0.82;;;;;;;;;;4932711;29;20088;-86
2022/07/22 08:22:31;;;;;;;6.07;1.13;;;;;;;;;;4932210;29;20537;-86
2022/07/22 08:24:57;;;;;;;11.82;1.33;;;;;;;;;;4924682;29;20427;-86
2022/07/22 08:27:23;;;;;;;4.55;1.33;;;;;;;;;;4946328;28;20058;-86
2022/07/22 08:29:49;;;;;;;6.15;1.67;;;;;;;;;;4942338;28;20041;-87
2022/07/22 08:32:15;;;;;;;8.95;1.83;;;;;;;;;;4909017;29;20142;-87
2022/07/22 08:34:41;;;;;;;8.18;1.85;;;;;;;;;;4943982;28;20586;-86
2022/07/22 08:37:07;;;;;;;6.32;1.27;;;;;;;;;;4914797;29;20443;-86
2022/07/22 08:39:34;;;;;;;4.40;1.02;;;;;;;;;;4937346;28;20421;-87
2022/07/22 08:42:00;;;;;;;11.07;1.58;;;;;;;;;;4943139;28;20129;-86
2022/07/22 08:44:30;;;;;;;7.47;1.55;;;;;;;;;;4909679;29;20476;-87
2022/07/22 08:46:56;;;;;;;7.40;1.60;;;;;;;;;;4942627;28;20488;-86
2022/07/22 08:49:22;;;;;;;5.40;1.50;;;;;;;;;;4925772;29;20510;-86
2022/07/22 08:51:51;;;;;;;10.35;1.73;;;;;;;;;;4917109;29;20475;-86
2022/07/22 08:54:17;;;;;;;4.15;1.70;;;;;;;;;;4926923;29;20040;-85
2022/07/22 08:56:46;;;;;;;8.45;1.65;;;;;;;;;;4944721;28;20046;-85
2022/07/22 08:59:13;;;;;;;10.70;1.92;;;;;;;;;;4945703;28;20523;-86
2022/07/22 09:01:59;;;;;;;4.22;1.40;;;;;;;;;;4915166;29;20050;-86
2022/07/22 09:04:25;;;;;;;2.97;1.30;;;;;;;;;;4950784;28;20372;-86
2022/07/22 09:06:51;;;;;;;6.70;1.83;;;;;;;;;;4945128;28;20035;-86
2022/07/22 09:09:17;;;;;;;5.00;1.25;;;;;;;;;;4942104;28;20790;-86
2022/07/22 09:11:43;;;;;;;8.02;1.35;;;;;;;;;;4928041;29;20047;-86
2022/07/22 09:14:09;;;;;;;4.80;2.03;;;;;;;;;;4915163;29;20058;-86
2022/07/22 09:16:39;;;;;;;5.03;1.30;;;;;;;;;;4917295;29;20043;-86
2022/07/22 09:19:05;;;;;;;4.57;1.50;;;;;;;;;;4919370;29;20559;-86
2022/07/22 09:21:32;;;;;;;5.30;1.63;;;;;;;;;;4939356;28;20055;-86
2022/07/22 09:23:58;;;;;;;8.45;1.40;;;;;;;;;;4941076;28;20035;-86
2022/07/22 09:26:38;;;;;;;4.32;1.35;;;;;;;;;;4931231;29;20031;-86
2022/07/22 09:29:05;;;;;;;6.07;1.35;;;;;;;;;;4929259;29;20040;-86
2022/07/22 09:31:35;;;;;;;4.97;1.30;;;;;;;;;;4947883;28;20056;-86
2022/07/22 09:34:02;;;;;;;2.78;1.13;;;;;;;;;;4926555;29;20135;-86
2022/07/22 09:36:28;;;;;;;7.07;1.58;;;;;;;;;;4943033;28;20031;-86
2022/07/22 09:38:54;;;;;;;5.57;1.73;;;;;;;;;;4942337;28;20029;-86
2022/07/22 09:41:21;;;;;;;4.35;1.40;;;;;;;;;;4934692;29;20035;-86
2022/07/22 09:43:47;;;;;;;5.65;1.40;;;;;;;;;;4929464;29;20509;-86
2022/07/22 09:46:13;;;;;;;10.32;1.90;;;;;;;;;;4928806;29;20034;-86
2022/07/22 09:48:40;;;;;;;3.05;1.02;;;;;;;;;;4928754;29;20035;-85
2022/07/22 09:51:06;;;;;;;10.45;1.50;;;;;;;;;;4945213;28;20054;-86
2022/07/22 09:53:33;;;;;;;5.57;1.45;;;;;;;;;;4934690;29;20031;-86
2022/07/22 09:56:00;;;;;;;5.32;1.50;;;;;;;;;;4929831;29;20027;-86
2022/07/22 09:58:33;;;;;;;6.97;1.10;;;;;;;;;;4914825;29;20122;-86
2022/07/22 10:01:00;;;;;;;10.38;1.73;;;;;;;;;;4946723;28;20435;-86
2022/07/22 10:03:31;;;;;;;2.25;1.33;;;;;;;;;;4931884;29;20039;-86
2022/07/22 10:05:58;;;;;;;7.63;1.55;;;;;;;;;;4929652;29;20027;-86
2022/07/22 10:08:24;;;;;;;6.18;1.20;;;;;;;;;;4940845;28;20047;-86
2022/07/22 10:10:52;;;;;;;2.72;0.98;;;;;;;;;;4940126;28;20404;-86
2022/07/22 10:13:19;;;;;;;4.68;1.08;;;;;;;;;;4943996;28;20043;-86
2022/07/22 10:15:46;;;;;;;12.07;1.25;;;;;;;;;;4936612;29;20639;-86
2022/07/22 10:18:16;;;;;;;3.75;1.48;;;;;;;;;;4931683;29;20394;-86
2022/07/22 10:20:42;;;;;;;2.72;1.23;;;;;;;;;;4945686;28;20039;-86
2022/07/22 10:23:09;;;;;;;2.03;0.90;;;;;;;;;;4910559;29;21130;-86
2022/07/22 10:25:56;;;;;;;2.20;1.00;;;;;;;;;;4945404;28;20076;-86
2022/07/22 10:28:22;;;;;;;3.92;1.00;;;;;;;;;;4929683;29;20067;-86
2022/07/22 10:30:48;;;;;;;2.72;1.08;;;;;;;;;;4929998;28;20505;-86
2022/07/22 10:33:17;;;;;;;3.05;1.13;;;;;;;;;;4935023;29;20502;-86
2022/07/22 10:35:43;;;;;;;7.15;1.10;;;;;;;;;;4926001;29;20023;-85
2022/07/22 10:38:10;;;;;;;4.50;1.38;;;;;;;;;;4933065;29;20098;-86
2022/07/22 10:40:56;;;;;;;5.88;1.20;;;;;;;;;;4948228;28;20590;-86
2022/07/22 10:43:22;;;;;;;;;;;;;;;;;;4944209;28;20071;-85
2022/07/22 10:45:49;;;;;;;7.82;1.58;;;;;;;;;;4932018;29;19957;-85
2022/07/22 10:48:16;;;;;;;3.42;1.63;;;;;;;;;;4941108;28;20046;-85
2022/07/22 10:50:50;;;;;;;1.77;0.90;;;;;;;;;;4927070;29;20035;-85
2022/07/22 10:53:21;;;;;;;9.57;1.10;;;;;;;;;;4939288;28;20083;-86
2022/07/22 10:55:59;;;;;;;4.03;1.50;;;;;;;;;;4941968;28;20053;-85
2022/07/22 10:58:34;;;;;;;2.15;1.10;;;;;;;;;;4945837;28;20897;-85
2022/07/22 11:01:06;;;;;;;6.57;1.00;;;;;;;;;;4927267;29;20047;-85
2022/07/22 11:03:33;;;;;;;4.88;1.20;;;;;;;;;;4928347;29;20038;-84
2022/07/22 11:06:18;;;;;;;5.18;1.23;;;;;;;;;;4944883;28;20142;-85
2022/07/22 11:08:44;;;;;;;3.58;1.00;;;;;;;;;;4912393;29;20130;-85
2022/07/22 11:11:10;;;;;;;1.67;0.77;;;;;;;;;;4927014;28;20619;-85
2022/07/22 11:13:38;;;;;;;5.82;0.85;;;;;;;;;;4940334;28;20414;-85
2022/07/22 11:16:33;;;;;;;2.92;0.95;;;;;;;;;;4942213;28;20277;-85
2022/07/22 11:19:00;;;;;;;7.03;1.33;;;;;;;;;;4904659;29;20067;-85
2022/07/22 11:21:28;;;;;;;3.92;1.20;;;;;;;;;;4941343;28;20068;-85
2022/07/22 11:23:55;;;;;;;3.58;1.13;;;;;;;;;;4925813;29;20543;-86
2022/07/22 11:26:41;;;;;;;9.52;1.25;;;;;;;;;;4946548;28;20130;-86
2022/07/22 11:29:08;;;;;;;1.38;0.80;;;;;;;;;;4912366;29;20540;-86
2022/07/22 11:31:34;;;;;;;2.63;1.10;;;;;;;;;;4940447;28;20452;-86
2022/07/22 11:34:07;;;;;;;2.58;0.90;;;;;;;;;;4940291;28;20067;-85
2022/07/22 11:36:37;;;;;;;6.38;1.50;;;;;;;;;;4927027;29;20436;-85
2022/07/22 11:39:04;;;;;;;2.97;1.20;;;;;;;;;;4930302;29;20106;-85
2022/07/22 11:41:31;;;;;;;2.28;0.73;;;;;;;;;;4931095;29;20039;-85
2022/07/22 11:43:57;;;;;;;5.25;1.10;;;;;;;;;;4946418;28;20512;-86
2022/07/22 11:46:25;;;;;;;3.58;0.80;;;;;;;;;;4945105;28;20094;-86
2022/07/22 11:48:52;;;;;;;7.13;0.90;;;;;;;;;;4928400;29;20036;-85
2022/07/22 11:51:18;;;;;;;3.35;0.80;;;;;;;;;;4923347;29;20046;-85
2022/07/22 11:53:44;;;;;;;2.80;0.65;;;;;;;;;;4945482;28;20035;-85
2022/07/22 11:56:11;;;;;;;3.67;0.52;;;;;;;;;;4925822;29;20111;-86
2022/07/22 11:58:42;;;;;;;1.80;0.65;;;;;;;;;;4947819;28;20035;-86
2022/07/22 12:01:15;;;;;;;5.85;0.65;;;;;;;;;;4942111;28;20436;-86
2022/07/22 12:03:52;;;;;;;2.28;0.77;;;;;;;;;;4940881;28;20042;-86
2022/07/22 12:06:19;;;;;;;3.70;0.77;;;;;;;;;;4944703;28;20551;-85
2022/07/22 12:08:55;;;;;;;3.13;1.00;;;;;;;;;;4912181;29;20032;-85
2022/07/22 12:11:22;;;;;;;0.75;0.63;;;;;;;;;;4941989;28;20056;-86
2022/07/22 12:13:49;;;;;;;4.30;0.80;;;;;;;;;;4944429;28;20399;-85
2022/07/22 12:16:28;;;;;;;0.88;0.80;;;;;;;;;;4913358;29;20709;-86
2022/07/22 12:18:59;;;;;;;0.80;0.60;;;;;;;;;;4918410;29;20031;-86
2022/07/22 12:21:27;;;;;;;6.13;1.00;;;;;;;;;;4929633;29;20039;-85
2022/07/22 12:24:02;;;;;;;3.15;1.00;;;;;;;;;;4912094;29;20404;-86
2022/07/22 12:26:47;;;;;;;2.40;0.70;;;;;;;;;;4941616;28;20067;-86
2022/07/22 12:29:15;;;;;;;4.65;0.95;;;;;;;;;;4942132;28;20040;-85
2022/07/22 12:31:44;;;;;;;1.75;0.70;;;;;;;;;;4933095;29;20418;-85
2022/07/22 12:34:10;;;;;;;0.52;0.45;;;;;;;;;;4914588;29;20462;-86
2022/07/22 12:36:36;;;;;;;2.72;0.55;;;;;;;;;;4909476;29;20032;-86
2022/07/22 12:39:19;;;;;;;3.80;0.80;;;;;;;;;;4918003;29;20555;-86
2022/07/22 12:41:46;;;;;;;2.70;0.90;;;;;;;;;;4931531;29;20107;-86
2022/07/22 12:44:16;;;;;;;0.90;0.70;;;;;;;;;;4946495;28;20147;-86
2022/07/22 12:46:49;;;;;;;2.10;1.27;;;;;;;;;;4945336;28;20526;-85
2022/07/22 12:49:17;;;;;;;5.30;0.95;;;;;;;;;;4928969;29;20115;-85
2022/07/22 12:52:03;;;;;;;2.28;0.63;;;;;;;;;;4942195;28;20036;-85
2022/07/22 12:54:29;;;;;;;2.80;0.73;;;;;;;;;;4943821;28;20744;-86
2022/07/22 12:56:55;;;;;;;6.30;2.10;;;;;;;;;;4948696;28;20051;-86
2022/07/22 12:59:21;;;;;;;5.07;0.88;;;;;;;;;;4946143;28;20035;-86
2022/07/22 13:01:48;;;;;;;3.00;1.00;;;;;;;;;;4948598;28;20185;-86
2022/07/22 13:04:14;;;;;;;5.47;1.13;;;;;;;;;;4946239;28;20562;-85
2022/07/22 13:06:40;;;;;;;7.60;1.00;;;;;;;;;;4928074;29;20036;-86
2022/07/22 13:09:07;;;;;;;4.57;0.93;;;;;;;;;;4914891;29;20063;-85
2022/07/22 13:11:39;;;;;;;3.67;1.00;;;;;;;;;;4947904;28;20051;-85
2022/07/22 13:14:05;;;;;;;1.67;1.10;;;;;;;;;;4933857;29;20027;-86
2022/07/22 13:16:31;;;;;;;5.28;0.85;;;;;;;;;;4930939;29;20062;-86
2022/07/22 13:18:57;;;;;;;1.90;0.82;;;;;;;;;;4939981;28;20499;-85
2022/07/22 13:21:23;;;;;;;2.80;0.98;;;;;;;;;;4930324;29;20039;-86
2022/07/22 13:23:49;;;;;;;2.75;0.88;;;;;;;;;;4928631;29;20115;-86
2022/07/22 13:26:15;;;;;;;1.67;0.90;;;;;;;;;;4949146;28;20285;-86
2022/07/22 13:28:42;;;;;;;3.00;1.10;;;;;;;;;;4935362;29;20035;-87
2022/07/22 13:31:08;;;;;;;1.00;0.63;;;;;;;;;;4942048;28;20031;-85
2022/07/22 13:33:34;;;;;;;1.80;0.73;;;;;;;;;;4928963;29;20031;-85
2022/07/22 13:36:01;;;;;;;2.80;0.93;;;;;;;;;;4945743;28;20082;-85
2022/07/22 13:38:26;;;;;;;2.42;0.65;;;;;;;;;;4931128;29;20122;-86
2022/07/22 13:40:53;;;;;;;3.33;0.80;;;;;;;;;;4932238;29;20118;-86
2022/07/22 13:43:19;;;;;;;2.10;0.70;;;;;;;;;;4946826;28;20036;-86
2022/07/22 13:45:45;;;;;;;7.18;1.55;;;;;;;;;;4925928;29;20079;-86
2022/07/22 13:48:11;;;;;;;4.65;1.02;;;;;;;;;;4948824;28;20036;-86
2022/07/22 13:50:37;;;;;;;1.85;0.80;;;;;;;;;;4946693;28;20527;-86
2022/07/22 13:53:03;;;;;;;3.00;1.00;;;;;;;;;;4946242;28;20024;-86
2022/07/22 13:55:30;;;;;;;2.63;0.90;;;;;;;;;;4945402;28;20399;-86
2022/07/22 13:57:57;;;;;;;3.03;1.38;;;;;;;;;;4944798;28;20028;-86
2022/07/22 14:00:23;;;;;;;3.83;1.10;;;;;;;;;;4929813;29;20036;-86
2022/07/22 14:02:49;;;;;;;4.60;0.98;;;;;;;;;;4928436;28;20095;-86
2022/07/22 14:05:15;;;;;;;3.33;1.08;;;;;;;;;;4932502;29;20089;-87
2022/07/22 14:07:41;;;;;;;2.97;0.80;;;;;;;;;;4944693;28;20122;-87
2022/07/22 14:10:08;;;;;;;2.17;0.70;;;;;;;;;;4928690;28;20134;-87
2022/07/22 14:12:34;;;;;;;3.67;0.82;;;;;;;;;;4929161;28;20040;-86
2022/07/22 14:15:00;;;;;;;1.20;0.80;;;;;;;;;;4944906;28;20038;-87
2022/07/22 14:17:26;;;;;;;4.57;1.15;;;;;;;;;;4913832;29;20039;-86
2022/07/22 14:19:52;;;;;;;4.05;1.20;;;;;;;;;;4930290;29;20141;-85
2022/07/22 14:22:18;;;;;;;9.40;0.98;;;;;;;;;;4942000;28;20051;-87
2022/07/22 14:24:44;;;;;;;3.20;0.82;;;;;;;;;;4945175;28;20039;-86
2022/07/22 14:27:10;;;;;;;3.85;1.17;;;;;;;;;;4914103;29;20050;-87
2022/07/22 14:29:36;;;;;;;5.10;1.17;;;;;;;;;;4941265;28;20695;-87
2022/07/22 14:32:02;;;;;;;4.95;0.95;;;;;;;;;;4946027;28;20507;-86
2022/07/22 14:34:28;;;;;;;9.02;1.40;;;;;;;;;;4928986;29;20685;-86
2022/07/22 14:36:54;;;;;;;4.90;1.05;;;;;;;;;;4944509;28;20063;-86
2022/07/22 14:39:20;;;;;;;7.22;1.20;;;;;;;;;;4926750;29;20058;-86
2022/07/22 14:41:46;;;;;;;2.55;0.95;;;;;;;;;;4945399;28;20041;-86
2022/07/22 14:44:13;;;;;;;4.35;1.00;;;;;;;;;;4940312;28;20031;-85
2022/07/22 14:46:39;;;;;;;3.55;1.17;;;;;;;;;;4933591;29;20159;-86